Time;durP1;ratioP1;P1;durP2;ratioP2;P2;SDS_P1;SDS_P2;PMS_P1;PMS_P2;Temp;Humidity;BMP_temperature;BMP_pressure;BME280_temperature;BME280_humidity;BME280_pressure;Samples;Min_cycle;Max_cycle;Signal;HPM_P1;HPM_P2
2021/08/07 00:01:02;;;;;;;5.63;4.97;;;;;;;;;;5000370;28;20451;-68
2021/08/07 00:03:28;;;;;;;6.37;4.70;;;;;;;;;;5015119;28;20431;-68
2021/08/07 00:05:54;;;;;;;5.90;4.27;;;;;;;;;;5013413;28;20442;-68
2021/08/07 00:08:20;;;;;;;5.53;4.30;;;;;;;;;;5028499;28;20999;-68
2021/08/07 00:10:46;;;;;;;5.97;4.40;;;;;;;;;;5014652;28;20416;-68
2021/08/07 00:13:12;;;;;;;8.03;5.13;;;;;;;;;;5003180;28;20455;-68
2021/08/07 00:15:38;;;;;;;6.43;3.60;;;;;;;;;;5000138;28;20422;-68
2021/08/07 00:18:04;;;;;;;5.37;4.00;;;;;;;;;;5001633;28;20840;-68
2021/08/07 00:20:31;;;;;;;6.90;4.30;;;;;;;;;;4995499;28;20412;-68
2021/08/07 00:22:57;;;;;;;7.67;4.47;;;;;;;;;;5004255;28;20440;-68
2021/08/07 00:25:23;;;;;;;5.10;4.13;;;;;;;;;;4994972;28;20425;-70
2021/08/07 00:27:49;;;;;;;6.10;3.80;;;;;;;;;;5013807;23;20976;-68
2021/08/07 00:30:15;;;;;;;6.40;4.10;;;;;;;;;;4988771;28;20458;-67
2021/08/07 00:32:41;;;;;;;5.77;3.60;;;;;;;;;;4993351;28;20428;-68
2021/08/07 00:35:08;;;;;;;4.70;3.70;;;;;;;;;;4994119;28;20868;-68
2021/08/07 00:37:34;;;;;;;6.77;3.57;;;;;;;;;;4994350;28;20999;-68
2021/08/07 00:40:00;;;;;;;4.37;3.10;;;;;;;;;;5000761;28;20432;-68
2021/08/07 00:42:26;;;;;;;5.97;3.57;;;;;;;;;;4993687;28;20425;-68
2021/08/07 00:44:53;;;;;;;5.87;4.17;;;;;;;;;;4994674;28;20423;-68
2021/08/07 00:47:19;;;;;;;15.23;5.27;;;;;;;;;;4994542;28;20421;-68
2021/08/07 00:49:45;;;;;;;4.87;3.73;;;;;;;;;;4994842;28;20478;-68
2021/08/07 00:52:11;;;;;;;4.30;3.30;;;;;;;;;;4999926;28;20432;-68
2021/08/07 00:54:40;;;;;;;7.07;4.00;;;;;;;;;;4994346;28;20405;-68
2021/08/07 00:57:06;;;;;;;4.23;3.27;;;;;;;;;;4994180;28;20787;-68
2021/08/07 00:59:32;;;;;;;7.37;4.60;;;;;;;;;;4993496;28;20429;-68
2021/08/07 01:02:00;;;;;;;4.97;4.30;;;;;;;;;;4993522;28;20423;-68
2021/08/07 01:04:27;;;;;;;6.67;4.23;;;;;;;;;;4994230;28;20412;-68
2021/08/07 01:07:04;;;;;;;4.70;3.50;;;;;;;;;;4994026;28;20490;-68
2021/08/07 01:09:39;;;;;;;5.00;3.50;;;;;;;;;;4993948;28;20525;-68
2021/08/07 01:12:10;;;;;;;5.97;3.63;;;;;;;;;;4993395;28;20462;-68
2021/08/07 01:14:37;;;;;;;3.73;3.30;;;;;;;;;;4994134;28;20941;-68
2021/08/07 01:17:09;;;;;;;6.37;3.73;;;;;;;;;;4991916;28;20432;-68
2021/08/07 01:19:43;;;;;;;5.00;3.40;;;;;;;;;;4993953;28;20780;-68
2021/08/07 01:22:09;;;;;;;4.60;3.30;;;;;;;;;;4993720;28;20490;-68
2021/08/07 01:24:37;;;;;;;7.10;3.50;;;;;;;;;;4993963;28;20487;-68
2021/08/07 01:27:07;;;;;;;4.00;3.10;;;;;;;;;;5001314;28;20427;-68
2021/08/07 01:29:33;;;;;;;6.87;3.90;;;;;;;;;;4997289;28;20496;-68
2021/08/07 01:32:00;;;;;;;7.10;3.70;;;;;;;;;;4992860;28;20789;-68
2021/08/07 01:34:26;;;;;;;4.70;3.47;;;;;;;;;;4993879;28;20401;-68
2021/08/07 01:36:52;;;;;;;4.30;3.50;;;;;;;;;;4992812;28;20440;-68
2021/08/07 01:39:18;;;;;;;4.33;3.40;;;;;;;;;;4988361;28;20456;-67
2021/08/07 01:41:44;;;;;;;3.90;3.40;;;;;;;;;;4982580;28;20420;-67
2021/08/07 01:44:10;;;;;;;5.50;3.10;;;;;;;;;;4992876;28;20417;-68
2021/08/07 01:46:39;;;;;;;4.50;3.47;;;;;;;;;;4995651;28;20424;-68
2021/08/07 01:49:14;;;;;;;4.70;3.20;;;;;;;;;;4994679;28;20470;-68
2021/08/07 01:51:53;;;;;;;11.67;4.07;;;;;;;;;;4998241;28;20466;-68
2021/08/07 01:54:22;;;;;;;5.57;4.50;;;;;;;;;;4997343;28;20866;-68
2021/08/07 01:56:48;;;;;;;7.50;3.40;;;;;;;;;;4996233;28;20482;-68
2021/08/07 01:59:19;;;;;;;6.03;4.03;;;;;;;;;;4996985;28;20452;-68
2021/08/07 02:01:46;;;;;;;4.67;3.17;;;;;;;;;;4996897;28;20455;-67
2021/08/07 02:04:14;;;;;;;4.50;2.90;;;;;;;;;;4995432;28;20804;-68
2021/08/07 02:06:40;;;;;;;7.40;3.37;;;;;;;;;;4997380;28;20428;-68
2021/08/07 02:09:06;;;;;;;4.03;3.43;;;;;;;;;;4996638;28;20498;-68
2021/08/07 02:11:33;;;;;;;3.70;3.17;;;;;;;;;;4996618;28;20429;-68
2021/08/07 02:14:00;;;;;;;4.00;3.30;;;;;;;;;;4995609;28;20436;-68
2021/08/07 02:16:26;;;;;;;6.63;3.17;;;;;;;;;;4997438;28;20405;-68
2021/08/07 02:18:53;;;;;;;4.10;2.80;;;;;;;;;;4996849;28;20448;-68
2021/08/07 02:21:20;;;;;;;5.43;3.30;;;;;;;;;;4996234;28;20433;-68
2021/08/07 02:23:47;;;;;;;5.20;3.60;;;;;;;;;;4996836;28;20498;-68
2021/08/07 02:26:14;;;;;;;5.77;3.63;;;;;;;;;;4998616;28;20451;-68
2021/08/07 02:28:40;;;;;;;6.40;4.40;;;;;;;;;;5002941;28;20563;-68
2021/08/07 02:31:07;;;;;;;8.63;4.17;;;;;;;;;;4996986;28;20487;-68
2021/08/07 02:33:35;;;;;;;6.60;4.13;;;;;;;;;;4995027;28;20452;-68
2021/08/07 02:36:01;;;;;;;4.50;3.50;;;;;;;;;;4996912;28;20437;-68
2021/08/07 02:38:29;;;;;;;4.00;3.37;;;;;;;;;;4995915;28;20459;-68
2021/08/07 02:40:56;;;;;;;4.53;3.20;;;;;;;;;;4997017;28;20478;-68
2021/08/07 02:43:22;;;;;;;6.50;4.00;;;;;;;;;;4995936;28;20442;-68
2021/08/07 02:45:49;;;;;;;4.30;3.27;;;;;;;;;;4996375;28;20932;-68
2021/08/07 02:48:16;;;;;;;7.23;3.50;;;;;;;;;;4995926;28;20463;-68
2021/08/07 02:50:42;;;;;;;5.97;2.93;;;;;;;;;;4996649;28;20428;-68
2021/08/07 02:53:10;;;;;;;4.07;2.83;;;;;;;;;;4996219;28;20559;-68
2021/08/07 02:55:37;;;;;;;7.97;5.00;;;;;;;;;;4996734;28;20421;-68
2021/08/07 02:58:03;;;;;;;4.27;3.87;;;;;;;;;;4993848;28;20454;-68
2021/08/07 03:00:29;;;;;;;8.00;4.00;;;;;;;;;;4996499;28;20405;-68
2021/08/07 03:02:55;;;;;;;4.80;3.40;;;;;;;;;;4995498;28;20409;-67
2021/08/07 03:05:23;;;;;;;5.77;3.37;;;;;;;;;;4992915;28;20466;-68
2021/08/07 03:07:49;;;;;;;5.03;3.07;;;;;;;;;;4995984;28;20432;-68
2021/08/07 03:10:15;;;;;;;5.60;4.07;;;;;;;;;;4991873;28;20430;-68
2021/08/07 03:12:44;;;;;;;4.83;3.13;;;;;;;;;;4986892;28;20405;-68
2021/08/07 03:15:10;;;;;;;5.03;3.17;;;;;;;;;;4995612;28;20467;-68
2021/08/07 03:17:37;;;;;;;9.43;3.73;;;;;;;;;;4993608;28;20471;-68
2021/08/07 03:20:03;;;;;;;5.87;3.30;;;;;;;;;;4994623;28;20420;-68
2021/08/07 03:22:29;;;;;;;4.73;3.63;;;;;;;;;;4994157;28;20424;-68
2021/08/07 03:24:55;;;;;;;4.93;3.50;;;;;;;;;;4995180;28;20428;-68
2021/08/07 03:27:22;;;;;;;3.73;2.70;;;;;;;;;;4998236;28;20443;-69
2021/08/07 03:29:48;;;;;;;6.07;3.63;;;;;;;;;;4995269;28;20963;-68
2021/08/07 03:32:14;;;;;;;4.67;3.03;;;;;;;;;;4996186;28;20401;-68
2021/08/07 03:34:40;;;;;;;4.30;3.20;;;;;;;;;;4995256;28;20431;-68
2021/08/07 03:37:06;;;;;;;5.07;3.40;;;;;;;;;;4995704;28;20900;-68
2021/08/07 03:39:32;;;;;;;5.10;3.40;;;;;;;;;;4994847;28;20459;-68
2021/08/07 03:41:58;;;;;;;11.27;3.90;;;;;;;;;;4995706;28;20496;-68
2021/08/07 03:44:24;;;;;;;4.63;2.80;;;;;;;;;;4994936;28;20917;-68
2021/08/07 03:46:50;;;;;;;4.20;3.27;;;;;;;;;;4994265;28;20420;-68
2021/08/07 03:49:16;;;;;;;6.13;5.10;;;;;;;;;;4993270;28;20474;-67
2021/08/07 03:51:42;;;;;;;4.00;3.57;;;;;;;;;;4994157;28;20429;-67
2021/08/07 03:54:08;;;;;;;4.60;3.30;;;;;;;;;;4994894;28;20471;-68
2021/08/07 03:56:34;;;;;;;5.17;3.60;;;;;;;;;;4994125;28;20436;-67
2021/08/07 03:59:00;;;;;;;4.23;3.40;;;;;;;;;;4994615;28;20510;-67
2021/08/07 04:01:26;;;;;;;6.77;3.30;;;;;;;;;;4995437;28;20412;-67
2021/08/07 04:03:52;;;;;;;7.27;3.33;;;;;;;;;;4994756;28;20443;-67
2021/08/07 04:06:18;;;;;;;3.50;3.10;;;;;;;;;;4994598;28;20421;-67
2021/08/07 04:08:44;;;;;;;5.90;3.30;;;;;;;;;;4994468;28;20565;-67
2021/08/07 04:11:10;;;;;;;7.93;3.30;;;;;;;;;;4995177;28;20409;-67
2021/08/07 04:13:36;;;;;;;3.97;3.20;;;;;;;;;;4994143;28;20632;-67
2021/08/07 04:16:03;;;;;;;7.53;3.47;;;;;;;;;;4993767;28;20437;-67
2021/08/07 04:18:29;;;;;;;6.20;3.60;;;;;;;;;;4994321;28;20437;-67
2021/08/07 04:20:55;;;;;;;6.17;3.97;;;;;;;;;;4995104;28;20548;-67
2021/08/07 04:23:21;;;;;;;6.30;3.47;;;;;;;;;;4994276;28;20438;-67
2021/08/07 04:25:47;;;;;;;4.80;3.03;;;;;;;;;;4994750;28;20499;-67
2021/08/07 04:28:13;;;;;;;6.23;3.63;;;;;;;;;;4999454;28;21009;-67
2021/08/07 04:30:40;;;;;;;5.57;3.40;;;;;;;;;;4994841;28;20841;-67
2021/08/07 04:33:06;;;;;;;4.93;2.73;;;;;;;;;;4995002;28;20428;-67
2021/08/07 04:35:32;;;;;;;6.20;3.20;;;;;;;;;;4992602;28;20433;-67
2021/08/07 04:37:58;;;;;;;4.73;3.30;;;;;;;;;;4994871;28;20418;-67
2021/08/07 04:40:25;;;;;;;4.13;3.33;;;;;;;;;;4994210;28;20440;-67
2021/08/07 04:42:51;;;;;;;5.83;2.70;;;;;;;;;;4994771;28;20401;-67
2021/08/07 04:45:18;;;;;;;6.17;2.90;;;;;;;;;;4993534;28;20429;-67
2021/08/07 04:47:54;;;;;;;3.50;2.60;;;;;;;;;;4994535;28;20459;-67
2021/08/07 04:50:20;;;;;;;4.90;2.57;;;;;;;;;;4992095;28;20508;-67
2021/08/07 04:52:46;;;;;;;3.90;3.10;;;;;;;;;;4994616;28;20428;-67
2021/08/07 04:55:12;;;;;;;4.10;2.73;;;;;;;;;;4993461;28;20811;-67
2021/08/07 04:57:38;;;;;;;4.93;3.10;;;;;;;;;;4994519;28;20431;-67
2021/08/07 05:00:05;;;;;;;6.03;2.90;;;;;;;;;;4994045;28;20527;-67
2021/08/07 05:02:31;;;;;;;5.30;3.50;;;;;;;;;;4993404;28;20961;-67
2021/08/07 05:04:57;;;;;;;3.00;2.37;;;;;;;;;;4993707;28;20447;-67
2021/08/07 05:07:23;;;;;;;4.80;3.07;;;;;;;;;;4994853;28;20411;-67
2021/08/07 05:09:49;;;;;;;5.23;2.90;;;;;;;;;;4993735;28;20545;-67
2021/08/07 05:12:15;;;;;;;3.63;2.73;;;;;;;;;;4994414;28;20401;-67
2021/08/07 05:14:41;;;;;;;4.13;2.53;;;;;;;;;;4993010;28;20436;-67
2021/08/07 05:17:08;;;;;;;6.13;2.90;;;;;;;;;;4994249;28;20444;-67
2021/08/07 05:19:35;;;;;;;6.20;3.30;;;;;;;;;;4993584;28;20452;-67
2021/08/07 05:22:01;;;;;;;5.20;3.33;;;;;;;;;;4994129;28;20807;-67
2021/08/07 05:24:27;;;;;;;4.07;2.97;;;;;;;;;;4993134;28;21422;-67
2021/08/07 05:26:53;;;;;;;4.80;3.20;;;;;;;;;;5000948;28;20925;-67
2021/08/07 05:29:19;;;;;;;3.47;2.77;;;;;;;;;;5006245;28;20472;-67
2021/08/07 05:31:45;;;;;;;4.07;3.07;;;;;;;;;;4993842;28;20408;-67
2021/08/07 05:34:11;;;;;;;4.50;2.60;;;;;;;;;;4992425;28;20518;-68
2021/08/07 05:36:37;;;;;;;4.43;3.07;;;;;;;;;;4993448;28;20812;-67
2021/08/07 05:39:03;;;;;;;4.47;2.57;;;;;;;;;;4990848;28;20859;-67
2021/08/07 05:41:29;;;;;;;4.50;2.70;;;;;;;;;;4992357;28;20499;-67
2021/08/07 05:43:55;;;;;;;5.10;3.27;;;;;;;;;;4992201;28;20521;-67
2021/08/07 05:46:21;;;;;;;3.70;2.60;;;;;;;;;;4993879;28;20894;-67
2021/08/07 05:48:49;;;;;;;6.73;2.30;;;;;;;;;;4993227;28;20460;-67
2021/08/07 05:51:15;;;;;;;6.57;3.17;;;;;;;;;;4993910;28;20491;-67
2021/08/07 05:53:41;;;;;;;3.60;2.83;;;;;;;;;;4993610;28;20438;-68
2021/08/07 05:56:07;;;;;;;6.10;3.50;;;;;;;;;;4993924;28;20479;-67
2021/08/07 05:58:37;;;;;;;7.30;2.87;;;;;;;;;;4993718;28;20427;-67
2021/08/07 06:01:03;;;;;;;3.87;2.80;;;;;;;;;;4992917;28;20515;-67
2021/08/07 06:03:29;;;;;;;8.17;3.73;;;;;;;;;;4993662;28;20451;-67
2021/08/07 06:05:55;;;;;;;3.70;2.70;;;;;;;;;;4990048;28;20436;-69
2021/08/07 06:08:21;;;;;;;3.50;2.67;;;;;;;;;;4991882;28;20887;-65
2021/08/07 06:10:47;;;;;;;7.03;3.23;;;;;;;;;;4992481;28;20901;-65
2021/08/07 06:13:13;;;;;;;11.23;3.43;;;;;;;;;;4993230;28;20912;-64
2021/08/07 06:15:39;;;;;;;4.33;3.07;;;;;;;;;;4991048;28;20437;-64
2021/08/07 06:18:05;;;;;;;3.97;2.80;;;;;;;;;;4992870;28;20455;-66
2021/08/07 06:20:31;;;;;;;4.00;2.67;;;;;;;;;;4990716;28;20450;-66
2021/08/07 06:22:57;;;;;;;5.00;3.30;;;;;;;;;;4993154;28;20417;-67
2021/08/07 06:25:24;;;;;;;4.20;2.80;;;;;;;;;;4991781;28;20507;-67
2021/08/07 06:27:54;;;;;;;37.23;24.50;;;;;;;;;;5017767;23;20456;-61
2021/08/07 06:30:20;;;;;;;6.03;3.77;;;;;;;;;;5003311;28;20424;-63
2021/08/07 06:32:46;;;;;;;2.87;2.40;;;;;;;;;;5011513;28;20434;-63
2021/08/07 06:35:12;;;;;;;5.63;2.50;;;;;;;;;;5014239;28;20789;-64
2021/08/07 06:37:39;;;;;;;3.23;2.37;;;;;;;;;;5015806;28;20403;-64
2021/08/07 06:40:05;;;;;;;4.87;2.60;;;;;;;;;;4996040;28;20951;-64
2021/08/07 06:42:31;;;;;;;5.07;2.93;;;;;;;;;;4989579;28;20454;-64
2021/08/07 06:44:57;;;;;;;5.43;2.40;;;;;;;;;;4990431;28;20482;-65
2021/08/07 06:47:23;;;;;;;4.27;2.80;;;;;;;;;;4994645;28;20397;-65
2021/08/07 06:49:49;;;;;;;3.37;2.50;;;;;;;;;;4991304;28;20476;-65
2021/08/07 06:52:15;;;;;;;4.13;2.50;;;;;;;;;;4977043;28;20418;-64
2021/08/07 06:54:41;;;;;;;3.77;2.60;;;;;;;;;;4993812;28;20424;-64
2021/08/07 06:57:07;;;;;;;3.80;2.40;;;;;;;;;;4997032;28;20848;-64
2021/08/07 06:59:33;;;;;;;4.93;2.13;;;;;;;;;;4996475;28;20539;-64
2021/08/07 07:01:59;;;;;;;5.03;2.23;;;;;;;;;;4996753;28;20407;-64
2021/08/07 07:04:28;;;;;;;5.90;2.60;;;;;;;;;;4995846;28;20436;-64
2021/08/07 07:06:54;;;;;;;4.07;2.10;;;;;;;;;;4996609;28;20409;-64
2021/08/07 07:09:20;;;;;;;3.50;2.60;;;;;;;;;;4995896;28;20460;-64
2021/08/07 07:11:46;;;;;;;3.43;2.03;;;;;;;;;;4996176;28;20428;-65
2021/08/07 07:14:14;;;;;;;4.43;3.53;;;;;;;;;;4995168;28;20459;-64
2021/08/07 07:16:40;;;;;;;6.60;2.33;;;;;;;;;;4976830;28;20429;-65
2021/08/07 07:19:06;;;;;;;7.20;2.43;;;;;;;;;;4994808;28;20496;-65
2021/08/07 07:21:32;;;;;;;5.30;2.60;;;;;;;;;;4994945;28;20428;-65
2021/08/07 07:23:58;;;;;;;3.43;2.00;;;;;;;;;;4999871;28;20400;-65
2021/08/07 07:26:27;;;;;;;3.73;2.20;;;;;;;;;;4996380;28;20798;-65
2021/08/07 07:28:53;;;;;;;7.60;2.57;;;;;;;;;;4995719;28;20875;-65
2021/08/07 07:31:19;;;;;;;6.63;3.50;;;;;;;;;;4995059;28;20479;-65
2021/08/07 07:33:45;;;;;;;3.90;2.33;;;;;;;;;;4995913;28;20839;-65
2021/08/07 07:36:11;;;;;;;3.13;2.00;;;;;;;;;;4994609;28;20806;-65
2021/08/07 07:38:37;;;;;;;4.33;2.17;;;;;;;;;;4995588;28;20448;-64
2021/08/07 07:41:03;;;;;;;5.53;3.80;;;;;;;;;;4994291;28;20436;-66
2021/08/07 07:43:30;;;;;;;3.60;1.90;;;;;;;;;;4994407;28;20498;-66
2021/08/07 07:45:56;;;;;;;2.93;2.23;;;;;;;;;;4994286;28;20428;-65
2021/08/07 07:48:22;;;;;;;4.50;2.40;;;;;;;;;;4992859;28;20475;-64
2021/08/07 07:50:48;;;;;;;3.97;2.03;;;;;;;;;;4991927;28;20433;-66
2021/08/07 07:53:15;;;;;;;4.10;2.10;;;;;;;;;;4995785;28;20416;-65
2021/08/07 07:55:41;;;;;;;3.03;2.00;;;;;;;;;;4995221;28;20563;-66
2021/08/07 07:58:08;;;;;;;4.77;2.43;;;;;;;;;;4995400;28;20450;-66
2021/08/07 08:00:34;;;;;;;3.77;2.10;;;;;;;;;;4994043;28;20509;-66
2021/08/07 08:03:00;;;;;;;3.90;2.20;;;;;;;;;;4995389;28;20416;-66
2021/08/07 08:05:26;;;;;;;2.93;2.00;;;;;;;;;;4995066;28;20428;-66
2021/08/07 08:07:52;;;;;;;3.40;1.87;;;;;;;;;;4995164;28;20427;-66
2021/08/07 08:10:19;;;;;;;3.90;2.13;;;;;;;;;;4993989;28;20407;-66
2021/08/07 08:12:45;;;;;;;3.90;1.83;;;;;;;;;;4995209;28;20947;-66
2021/08/07 08:15:11;;;;;;;3.97;2.10;;;;;;;;;;4993774;28;20885;-66
2021/08/07 08:17:38;;;;;;;8.03;2.33;;;;;;;;;;4995282;28;20875;-66
2021/08/07 08:20:05;;;;;;;3.67;1.80;;;;;;;;;;4994206;28;20818;-66
2021/08/07 08:22:31;;;;;;;3.63;1.50;;;;;;;;;;4994100;28;20898;-66
2021/08/07 08:24:58;;;;;;;5.57;2.17;;;;;;;;;;5005635;28;20423;-66
2021/08/07 08:27:24;;;;;;;10.83;2.63;;;;;;;;;;4994102;28;20966;-66
2021/08/07 08:29:50;;;;;;;2.70;1.53;;;;;;;;;;4994593;28;20474;-66
2021/08/07 08:32:17;;;;;;;4.50;1.93;;;;;;;;;;4993432;28;20419;-65
2021/08/07 08:34:43;;;;;;;4.23;1.87;;;;;;;;;;4994967;28;20400;-65
2021/08/07 08:37:09;;;;;;;2.60;1.90;;;;;;;;;;4994208;28;20991;-65
2021/08/07 08:39:35;;;;;;;7.30;1.90;;;;;;;;;;4994517;28;20487;-65
2021/08/07 08:42:01;;;;;;;2.07;1.50;;;;;;;;;;4993598;28;20436;-65
2021/08/07 08:44:27;;;;;;;3.40;2.00;;;;;;;;;;4994499;28;20486;-65
2021/08/07 08:46:54;;;;;;;21.70;5.40;;;;;;;;;;4993277;28;20506;-66
2021/08/07 08:49:21;;;;;;;6.93;2.13;;;;;;;;;;4994225;28;20460;-65
2021/08/07 08:51:50;;;;;;;5.83;1.90;;;;;;;;;;4993204;28;20432;-65
2021/08/07 08:54:16;;;;;;;3.43;1.80;;;;;;;;;;4994556;28;20412;-65
2021/08/07 08:56:42;;;;;;;3.27;2.03;;;;;;;;;;4993045;28;20863;-66
2021/08/07 08:59:09;;;;;;;3.33;1.83;;;;;;;;;;4994016;28;20463;-65
2021/08/07 09:01:36;;;;;;;3.63;1.90;;;;;;;;;;4993147;28;20428;-65
2021/08/07 09:04:04;;;;;;;2.83;1.87;;;;;;;;;;4994134;28;20593;-65
2021/08/07 09:06:31;;;;;;;2.57;1.70;;;;;;;;;;4993607;28;20493;-65
2021/08/07 09:09:04;;;;;;;2.50;1.70;;;;;;;;;;4993821;28;20464;-66
2021/08/07 09:11:30;;;;;;;2.90;1.40;;;;;;;;;;4993135;28;20431;-65
2021/08/07 09:14:14;;;;;;;5.03;1.60;;;;;;;;;;4994362;28;20419;-66
2021/08/07 09:17:01;;;;;;;2.30;1.47;;;;;;;;;;4992287;28;20424;-66
2021/08/07 09:19:40;;;;;;;2.80;1.90;;;;;;;;;;4992918;28;20428;-65
2021/08/07 09:22:07;;;;;;;4.03;1.30;;;;;;;;;;4992717;28;20458;-65
2021/08/07 09:24:33;;;;;;;3.37;2.10;;;;;;;;;;4997596;28;20474;-65
2021/08/07 09:27:03;;;;;;;3.53;2.10;;;;;;;;;;4992593;28;20439;-66
2021/08/07 09:29:39;;;;;;;2.60;1.60;;;;;;;;;;4992970;28;20483;-65
2021/08/07 09:32:05;;;;;;;2.70;1.80;;;;;;;;;;4992827;28;20515;-66
2021/08/07 09:34:31;;;;;;;2.73;1.60;;;;;;;;;;4994502;28;20400;-66
2021/08/07 09:36:57;;;;;;;2.50;1.60;;;;;;;;;;4993485;28;20431;-65
2021/08/07 09:39:35;;;;;;;3.30;1.80;;;;;;;;;;4993748;28;20913;-65
2021/08/07 09:42:02;;;;;;;2.73;1.57;;;;;;;;;;4991837;28;20432;-65
2021/08/07 09:44:28;;;;;;;2.43;1.60;;;;;;;;;;4994178;28;20420;-65
2021/08/07 09:47:07;;;;;;;3.27;1.60;;;;;;;;;;4993016;28;20435;-65
2021/08/07 09:49:34;;;;;;;3.17;1.93;;;;;;;;;;4993554;28;20466;-65
2021/08/07 09:52:00;;;;;;;3.57;2.10;;;;;;;;;;4992739;28;20431;-66
2021/08/07 09:54:34;;;;;;;2.63;1.80;;;;;;;;;;4993856;28;20400;-65
2021/08/07 09:57:01;;;;;;;4.93;3.23;;;;;;;;;;4992788;28;20800;-65
2021/08/07 09:59:29;;;;;;;3.83;1.80;;;;;;;;;;4993706;28;20511;-66
2021/08/07 10:01:56;;;;;;;3.10;1.70;;;;;;;;;;4991528;28;20511;-65
2021/08/07 10:04:23;;;;;;;3.47;1.80;;;;;;;;;;4993568;28;20776;-65
2021/08/07 10:06:50;;;;;;;4.50;1.70;;;;;;;;;;4992608;28;20827;-65
2021/08/07 10:09:33;;;;;;;3.67;2.30;;;;;;;;;;4996772;28;20987;-65
2021/08/07 10:12:00;;;;;;;3.03;1.53;;;;;;;;;;4996119;28;20424;-65
2021/08/07 10:14:26;;;;;;;4.00;2.30;;;;;;;;;;4997385;28;20919;-65
2021/08/07 10:16:53;;;;;;;2.50;1.70;;;;;;;;;;4995894;28;20420;-65
2021/08/07 10:19:20;;;;;;;2.73;1.60;;;;;;;;;;4977907;28;20425;-65
2021/08/07 10:21:47;;;;;;;3.23;1.90;;;;;;;;;;4985678;28;20423;-65
2021/08/07 10:24:13;;;;;;;4.97;2.23;;;;;;;;;;5000177;28;20419;-66
2021/08/07 10:26:41;;;;;;;3.70;2.10;;;;;;;;;;4994899;28;20471;-65
2021/08/07 10:29:07;;;;;;;3.97;1.73;;;;;;;;;;4996870;28;20518;-65
2021/08/07 10:31:34;;;;;;;3.53;1.93;;;;;;;;;;4995877;28;20428;-65
2021/08/07 10:34:04;;;;;;;2.67;1.63;;;;;;;;;;4996844;28;20412;-65
2021/08/07 10:36:30;;;;;;;4.63;1.63;;;;;;;;;;4995305;28;20427;-65
2021/08/07 10:38:56;;;;;;;4.70;1.90;;;;;;;;;;4997033;28;20793;-65
2021/08/07 10:41:26;;;;;;;6.40;2.07;;;;;;;;;;4995907;28;20470;-65
2021/08/07 10:43:53;;;;;;;2.50;1.77;;;;;;;;;;4996628;28;20415;-65
2021/08/07 10:46:20;;;;;;;6.90;1.67;;;;;;;;;;4994308;28;20427;-65
2021/08/07 10:48:49;;;;;;;4.73;1.90;;;;;;;;;;4996696;28;20455;-65
2021/08/07 10:51:24;;;;;;;5.50;1.93;;;;;;;;;;4995412;28;20445;-65
2021/08/07 10:53:50;;;;;;;5.57;2.10;;;;;;;;;;4996648;28;20400;-66
2021/08/07 10:56:26;;;;;;;3.10;1.73;;;;;;;;;;4994029;28;20498;-65
2021/08/07 10:58:52;;;;;;;2.97;1.93;;;;;;;;;;4984524;28;20456;-66
2021/08/07 11:01:26;;;;;;;3.40;2.10;;;;;;;;;;5003770;28;20411;-65
2021/08/07 11:04:01;;;;;;;2.57;1.77;;;;;;;;;;4996812;28;20411;-65
2021/08/07 11:06:39;;;;;;;4.33;1.93;;;;;;;;;;4993322;28;20438;-65
2021/08/07 11:09:15;;;;;;;4.23;1.70;;;;;;;;;;4996287;28;20467;-66
2021/08/07 11:11:41;;;;;;;3.87;2.07;;;;;;;;;;4995282;28;20423;-65
2021/08/07 11:14:25;;;;;;;3.10;2.07;;;;;;;;;;5011374;28;20418;-65
2021/08/07 11:17:06;;;;;;;2.80;1.70;;;;;;;;;;4979892;28;20423;-65
2021/08/07 11:19:54;;;;;;;3.63;2.00;;;;;;;;;;4995991;28;20808;-65
2021/08/07 11:22:32;;;;;;;3.03;2.10;;;;;;;;;;4994962;28;20420;-65
2021/08/07 11:25:02;;;;;;;3.70;1.90;;;;;;;;;;4994703;28;20485;-66
2021/08/07 11:30:18;;;;;;;4.90;3.73;;;;;;;;;;4995964;28;20439;-65
2021/08/07 11:33:06;;;;;;;4.70;2.30;;;;;;;;;;4993777;28;20428;-65
2021/08/07 11:35:36;;;;;;;2.83;2.00;;;;;;;;;;4995790;28;20443;-65
2021/08/07 11:38:22;;;;;;;2.97;1.60;;;;;;;;;;4994435;28;20949;-65
2021/08/07 11:40:48;;;;;;;3.00;1.90;;;;;;;;;;4995708;28;20408;-66
2021/08/07 11:43:15;;;;;;;2.90;1.93;;;;;;;;;;4994462;28;20424;-65
2021/08/07 11:45:41;;;;;;;4.00;2.30;;;;;;;;;;4995801;28;20901;-65
2021/08/07 11:48:08;;;;;;;3.00;1.60;;;;;;;;;;4994148;28;20440;-65
2021/08/07 11:50:34;;;;;;;2.53;1.73;;;;;;;;;;5005536;28;20416;-65
2021/08/07 11:53:00;;;;;;;6.67;2.10;;;;;;;;;;4994433;28;20754;-65
2021/08/07 11:55:32;;;;;;;2.97;2.00;;;;;;;;;;4995280;28;20491;-65
2021/08/07 11:58:06;;;;;;;3.90;2.20;;;;;;;;;;4993936;28;20925;-65
2021/08/07 12:00:33;;;;;;;2.60;1.90;;;;;;;;;;4995173;28;20417;-65
2021/08/07 12:03:03;;;;;;;2.93;1.80;;;;;;;;;;4994313;28;20416;-65
2021/08/07 12:05:29;;;;;;;3.50;2.10;;;;;;;;;;4994111;28;20408;-65
2021/08/07 12:08:04;;;;;;;2.93;1.70;;;;;;;;;;4993921;28;20424;-65
2021/08/07 12:10:31;;;;;;;3.33;2.13;;;;;;;;;;4995411;28;20412;-65
2021/08/07 12:12:57;;;;;;;3.20;1.80;;;;;;;;;;4994726;28;20416;-65
2021/08/07 12:15:24;;;;;;;3.10;2.23;;;;;;;;;;4995204;28;20420;-65
2021/08/07 12:17:50;;;;;;;2.37;1.77;;;;;;;;;;4993998;28;20427;-65
2021/08/07 12:20:17;;;;;;;4.37;1.73;;;;;;;;;;4995398;28;20841;-65
2021/08/07 12:23:00;;;;;;;2.47;1.87;;;;;;;;;;4994733;28;20420;-65
2021/08/07 12:25:26;;;;;;;2.90;1.97;;;;;;;;;;4995074;28;20446;-66
2021/08/07 12:28:07;;;;;;;3.20;1.90;;;;;;;;;;4993646;28;20456;-67
2021/08/07 12:30:34;;;;;;;3.90;2.00;;;;;;;;;;4982262;28;20500;-65
2021/08/07 12:33:13;;;;;;;4.13;1.50;;;;;;;;;;4990864;28;20829;-65
2021/08/07 12:35:40;;;;;;;3.03;1.80;;;;;;;;;;5012314;28;20400;-65
2021/08/07 12:38:11;;;;;;;3.27;2.00;;;;;;;;;;5005706;28;20804;-65
2021/08/07 12:40:37;;;;;;;3.07;1.80;;;;;;;;;;5012635;28;20376;-65
2021/08/07 12:43:03;;;;;;;3.20;2.00;;;;;;;;;;4994222;28;20892;-65
2021/08/07 12:45:29;;;;;;;2.70;1.73;;;;;;;;;;4994676;28;20403;-66
2021/08/07 12:47:55;;;;;;;2.90;1.73;;;;;;;;;;4993087;28;21071;-65
2021/08/07 12:50:22;;;;;;;2.83;1.50;;;;;;;;;;4998508;28;20423;-65
2021/08/07 12:52:58;;;;;;;3.60;2.13;;;;;;;;;;4992482;28;20917;-65
2021/08/07 12:55:35;;;;;;;5.53;2.10;;;;;;;;;;4994564;28;20431;-65
2021/08/07 12:58:19;;;;;;;2.40;1.70;;;;;;;;;;4993178;28;20412;-65
2021/08/07 13:00:45;;;;;;;3.37;1.80;;;;;;;;;;4982708;28;20455;-64
2021/08/07 13:03:11;;;;;;;7.87;2.37;;;;;;;;;;4987815;28;20416;-65
2021/08/07 13:05:39;;;;;;;5.30;1.90;;;;;;;;;;4983761;28;20463;-64
2021/08/07 13:08:24;;;;;;;3.33;1.70;;;;;;;;;;4978444;28;20455;-65
2021/08/07 13:10:50;;;;;;;4.50;2.10;;;;;;;;;;4989381;28;20447;-65
2021/08/07 13:13:35;;;;;;;3.93;2.60;;;;;;;;;;4984826;28;20425;-67
2021/08/07 13:16:01;;;;;;;3.90;1.73;;;;;;;;;;4982285;28;20408;-64
2021/08/07 13:18:27;;;;;;;2.30;1.80;;;;;;;;;;4992225;28;20455;-65
2021/08/07 13:20:53;;;;;;;2.77;2.00;;;;;;;;;;4992815;28;20424;-64
2021/08/07 13:23:19;;;;;;;3.20;2.20;;;;;;;;;;4987187;28;20809;-64
2021/08/07 13:26:02;;;;;;;2.77;1.87;;;;;;;;;;4991038;28;20913;-64
2021/08/07 13:28:28;;;;;;;2.80;2.13;;;;;;;;;;4992960;28;20467;-63
2021/08/07 13:30:54;;;;;;;3.50;1.87;;;;;;;;;;4982568;28;20416;-64
2021/08/07 13:33:27;;;;;;;2.97;1.80;;;;;;;;;;4982097;28;20413;-64
2021/08/07 13:35:54;;;;;;;4.00;2.23;;;;;;;;;;4975944;28;20416;-65
2021/08/07 13:38:20;;;;;;;2.80;1.77;;;;;;;;;;4991372;28;20852;-64
2021/08/07 13:40:46;;;;;;;2.73;2.10;;;;;;;;;;4992564;28;20420;-65
2021/08/07 13:43:13;;;;;;;2.90;2.00;;;;;;;;;;4992716;28;20425;-65
2021/08/07 13:45:42;;;;;;;3.37;1.80;;;;;;;;;;4983429;28;20425;-65
2021/08/07 13:48:09;;;;;;;3.00;2.00;;;;;;;;;;4994915;28;20530;-64
2021/08/07 13:50:35;;;;;;;3.83;1.67;;;;;;;;;;4998482;28;20862;-65
2021/08/07 13:53:01;;;;;;;3.20;1.80;;;;;;;;;;4981123;28;20966;-65
2021/08/07 13:55:28;;;;;;;2.63;1.70;;;;;;;;;;4986595;28;20788;-65
2021/08/07 13:57:54;;;;;;;5.33;2.13;;;;;;;;;;4988845;28;20417;-65
2021/08/07 14:00:20;;;;;;;2.93;2.20;;;;;;;;;;4996175;28;20419;-65
2021/08/07 14:02:47;;;;;;;4.30;1.90;;;;;;;;;;4992753;28;20416;-64
2021/08/07 14:05:13;;;;;;;6.73;2.20;;;;;;;;;;4989485;28;20933;-68
2021/08/07 14:07:39;;;;;;;3.00;2.00;;;;;;;;;;4987797;28;20424;-64
2021/08/07 14:10:05;;;;;;;4.00;1.87;;;;;;;;;;4984158;28;20881;-66
2021/08/07 14:12:31;;;;;;;2.57;1.80;;;;;;;;;;4995618;28;20428;-65
2021/08/07 14:14:57;;;;;;;3.40;1.90;;;;;;;;;;4994275;28;20436;-66
2021/08/07 14:17:23;;;;;;;3.77;1.80;;;;;;;;;;4986757;28;20499;-66
2021/08/07 14:19:49;;;;;;;2.57;1.53;;;;;;;;;;4978120;28;20856;-65
2021/08/07 14:22:15;;;;;;;3.80;1.90;;;;;;;;;;4992764;28;20798;-64
2021/08/07 14:24:41;;;;;;;4.60;2.60;;;;;;;;;;4996199;28;20874;-63
2021/08/07 14:27:08;;;;;;;2.80;2.07;;;;;;;;;;4995003;28;20428;-64
2021/08/07 14:29:34;;;;;;;4.77;2.07;;;;;;;;;;4996140;28;20471;-64
2021/08/07 14:32:00;;;;;;;4.53;1.70;;;;;;;;;;4992939;28;20424;-65
2021/08/07 14:34:26;;;;;;;2.87;2.00;;;;;;;;;;4996094;28;20827;-64
2021/08/07 14:36:52;;;;;;;2.90;1.67;;;;;;;;;;4992601;28;20415;-66
2021/08/07 14:39:19;;;;;;;3.00;1.80;;;;;;;;;;4987095;28;20454;-64
2021/08/07 14:41:45;;;;;;;2.43;1.90;;;;;;;;;;4989980;28;20941;-66
2021/08/07 14:44:11;;;;;;;3.03;2.00;;;;;;;;;;4988085;28;20483;-65
2021/08/07 14:46:37;;;;;;;4.00;2.10;;;;;;;;;;4988752;28;20515;-65
2021/08/07 14:49:03;;;;;;;4.60;2.43;;;;;;;;;;4989433;28;20468;-67